sensor_id;sensor_type;location;lat;lon;timestamp;temperature;humidity
10030;DHT22;5055;52.054;8.524;2023-02-27T00:02:03;-2.80;97.00
10030;DHT22;5055;52.054;8.524;2023-02-27T00:04:32;-2.80;97.00
10030;DHT22;5055;52.054;8.524;2023-02-27T00:07:02;-2.80;97.00
10030;DHT22;5055;52.054;8.524;2023-02-27T00:09:30;-2.80;97.00
10030;DHT22;5055;52.054;8.524;2023-02-27T00:11:59;-2.80;97.00
10030;DHT22;5055;52.054;8.524;2023-02-27T00:14:27;-2.80;97.00
10030;DHT22;5055;52.054;8.524;2023-02-27T00:16:56;-2.70;97.00
10030;DHT22;5055;52.054;8.524;2023-02-27T00:19:24;-2.70;97.00
10030;DHT22;5055;52.054;8.524;2023-02-27T00:21:53;-2.60;97.00
10030;DHT22;5055;52.054;8.524;2023-02-27T00:24:23;-2.60;97.00
10030;DHT22;5055;52.054;8.524;2023-02-27T00:26:51;-2.50;97.00
10030;DHT22;5055;52.054;8.524;2023-02-27T00:29:19;-2.50;97.00
10030;DHT22;5055;52.054;8.524;2023-02-27T00:31:48;-2.50;97.00
10030;DHT22;5055;52.054;8.524;2023-02-27T00:34:16;-2.40;97.00
10030;DHT22;5055;52.054;8.524;2023-02-27T00:36:45;-2.40;97.00
10030;DHT22;5055;52.054;8.524;2023-02-27T00:39:14;-2.40;97.00
10030;DHT22;5055;52.054;8.524;2023-02-27T00:41:44;-2.50;97.00
10030;DHT22;5055;52.054;8.524;2023-02-27T00:44:12;-2.50;97.00
10030;DHT22;5055;52.054;8.524;2023-02-27T00:46:47;-2.50;97.00
10030;DHT22;5055;52.054;8.524;2023-02-27T00:49:16;-2.50;97.00
10030;DHT22;5055;52.054;8.524;2023-02-27T00:51:46;-2.60;97.00
10030;DHT22;5055;52.054;8.524;2023-02-27T00:54:14;-2.60;97.00
10030;DHT22;5055;52.054;8.524;2023-02-27T00:56:44;-2.60;97.00
10030;DHT22;5055;52.054;8.524;2023-02-27T00:59:13;-2.60;97.00
10030;DHT22;5055;52.054;8.524;2023-02-27T01:01:41;-2.70;97.00
10030;DHT22;5055;52.054;8.524;2023-02-27T01:04:10;-2.70;97.00
10030;DHT22;5055;52.054;8.524;2023-02-27T01:06:39;-2.70;97.00
10030;DHT22;5055;52.054;8.524;2023-02-27T01:09:07;-2.80;97.00
10030;DHT22;5055;52.054;8.524;2023-02-27T01:11:35;-2.80;97.00
10030;DHT22;5055;52.054;8.524;2023-02-27T01:14:05;-2.80;97.00
10030;DHT22;5055;52.054;8.524;2023-02-27T01:16:34;-2.90;97.00
10030;DHT22;5055;52.054;8.524;2023-02-27T01:19:02;-2.90;97.00
10030;DHT22;5055;52.054;8.524;2023-02-27T01:21:31;-2.90;97.00
10030;DHT22;5055;52.054;8.524;2023-02-27T01:24:00;-3.00;97.00
10030;DHT22;5055;52.054;8.524;2023-02-27T01:26:28;-3.10;97.00
10030;DHT22;5055;52.054;8.524;2023-02-27T01:28:57;-3.10;97.00
10030;DHT22;5055;52.054;8.524;2023-02-27T01:31:26;-3.20;97.00
10030;DHT22;5055;52.054;8.524;2023-02-27T01:33:55;-3.20;97.00
10030;DHT22;5055;52.054;8.524;2023-02-27T01:36:23;-3.30;97.00
10030;DHT22;5055;52.054;8.524;2023-02-27T01:38:52;-3.30;97.00
10030;DHT22;5055;52.054;8.524;2023-02-27T01:41:20;-3.30;97.00
10030;DHT22;5055;52.054;8.524;2023-02-27T01:43:54;-3.40;97.00
10030;DHT22;5055;52.054;8.524;2023-02-27T01:46:23;-3.40;97.00
10030;DHT22;5055;52.054;8.524;2023-02-27T01:48:55;-3.40;97.00
10030;DHT22;5055;52.054;8.524;2023-02-27T01:51:30;-3.50;97.00
10030;DHT22;5055;52.054;8.524;2023-02-27T01:53:59;-3.50;97.00
10030;DHT22;5055;52.054;8.524;2023-02-27T01:56:29;-3.40;97.00
10030;DHT22;5055;52.054;8.524;2023-02-27T01:59:00;-3.40;97.00
10030;DHT22;5055;52.054;8.524;2023-02-27T02:01:31;-3.50;97.00
10030;DHT22;5055;52.054;8.524;2023-02-27T02:04:05;-3.50;97.00
10030;DHT22;5055;52.054;8.524;2023-02-27T02:06:37;-3.50;97.00
10030;DHT22;5055;52.054;8.524;2023-02-27T02:09:09;-3.50;97.00
10030;DHT22;5055;52.054;8.524;2023-02-27T02:11:38;-3.60;97.00
10030;DHT22;5055;52.054;8.524;2023-02-27T02:14:06;-3.50;97.00
10030;DHT22;5055;52.054;8.524;2023-02-27T02:16:44;-3.50;97.00
10030;DHT22;5055;52.054;8.524;2023-02-27T02:19:54;-3.50;97.00
10030;DHT22;5055;52.054;8.524;2023-02-27T02:22:52;-3.50;97.00
10030;DHT22;5055;52.054;8.524;2023-02-27T02:25:55;-3.50;97.00
10030;DHT22;5055;52.054;8.524;2023-02-27T02:28:59;-3.50;97.00
10030;DHT22;5055;52.054;8.524;2023-02-27T02:31:48;-3.50;97.00
10030;DHT22;5055;52.054;8.524;2023-02-27T02:34:53;-3.50;97.00
10030;DHT22;5055;52.054;8.524;2023-02-27T02:40:37;-3.50;97.00
10030;DHT22;5055;52.054;8.524;2023-02-27T02:43:11;-3.40;97.00
10030;DHT22;5055;52.054;8.524;2023-02-27T02:45:47;-3.30;97.00
10030;DHT22;5055;52.054;8.524;2023-02-27T02:48:19;-3.30;97.00
10030;DHT22;5055;52.054;8.524;2023-02-27T02:50:55;-3.30;97.00
10030;DHT22;5055;52.054;8.524;2023-02-27T02:53:30;-3.30;97.00
10030;DHT22;5055;52.054;8.524;2023-02-27T02:56:09;-3.40;97.00
10030;DHT22;5055;52.054;8.524;2023-02-27T02:58:59;-3.40;97.00
10030;DHT22;5055;52.054;8.524;2023-02-27T03:01:35;-3.40;97.00
10030;DHT22;5055;52.054;8.524;2023-02-27T03:04:08;-3.50;97.00
10030;DHT22;5055;52.054;8.524;2023-02-27T03:06:41;-3.40;97.00
10030;DHT22;5055;52.054;8.524;2023-02-27T03:09:13;-3.40;97.00
10030;DHT22;5055;52.054;8.524;2023-02-27T03:11:47;-3.40;97.00
10030;DHT22;5055;52.054;8.524;2023-02-27T03:14:22;-3.50;97.00
10030;DHT22;5055;52.054;8.524;2023-02-27T03:16:55;-3.50;97.00
10030;DHT22;5055;52.054;8.524;2023-02-27T03:19:27;-3.60;97.00
10030;DHT22;5055;52.054;8.524;2023-02-27T03:22:05;-3.60;97.00
10030;DHT22;5055;52.054;8.524;2023-02-27T03:24:39;-3.70;97.00
10030;DHT22;5055;52.054;8.524;2023-02-27T03:27:10;-3.70;97.00
10030;DHT22;5055;52.054;8.524;2023-02-27T03:29:43;-3.80;97.00
10030;DHT22;5055;52.054;8.524;2023-02-27T03:32:17;-3.80;97.00
10030;DHT22;5055;52.054;8.524;2023-02-27T03:34:48;-3.80;97.00
10030;DHT22;5055;52.054;8.524;2023-02-27T03:37:26;-3.80;97.00
10030;DHT22;5055;52.054;8.524;2023-02-27T03:40:05;-3.90;97.00
10030;DHT22;5055;52.054;8.524;2023-02-27T03:42:44;-3.90;97.00
10030;DHT22;5055;52.054;8.524;2023-02-27T03:45:18;-4.00;97.00
10030;DHT22;5055;52.054;8.524;2023-02-27T03:47:50;-4.00;97.00
10030;DHT22;5055;52.054;8.524;2023-02-27T03:50:19;-4.10;97.00
10030;DHT22;5055;52.054;8.524;2023-02-27T03:52:48;-4.10;97.00
10030;DHT22;5055;52.054;8.524;2023-02-27T03:55:20;-4.10;97.00
10030;DHT22;5055;52.054;8.524;2023-02-27T03:57:51;-4.10;97.00
10030;DHT22;5055;52.054;8.524;2023-02-27T04:00:22;-4.10;97.00
10030;DHT22;5055;52.054;8.524;2023-02-27T04:02:53;-4.10;97.00
10030;DHT22;5055;52.054;8.524;2023-02-27T04:05:22;-4.10;97.00
10030;DHT22;5055;52.054;8.524;2023-02-27T04:08:03;-4.10;97.00
10030;DHT22;5055;52.054;8.524;2023-02-27T04:10:50;-4.10;97.00
10030;DHT22;5055;52.054;8.524;2023-02-27T04:13:45;-4.10;97.00
10030;DHT22;5055;52.054;8.524;2023-02-27T04:16:50;-4.10;97.00
10030;DHT22;5055;52.054;8.524;2023-02-27T04:19:40;-4.20;97.00
10030;DHT22;5055;52.054;8.524;2023-02-27T04:22:18;-4.20;97.00
10030;DHT22;5055;52.054;8.524;2023-02-27T04:24:56;-4.20;97.00
10030;DHT22;5055;52.054;8.524;2023-02-27T04:27:34;-4.20;97.00
10030;DHT22;5055;52.054;8.524;2023-02-27T04:30:14;-4.10;97.00
10030;DHT22;5055;52.054;8.524;2023-02-27T04:32:50;-4.00;97.00
10030;DHT22;5055;52.054;8.524;2023-02-27T04:35:22;-4.00;97.00
10030;DHT22;5055;52.054;8.524;2023-02-27T04:37:57;-4.00;97.00
10030;DHT22;5055;52.054;8.524;2023-02-27T04:40:32;-4.00;97.00
10030;DHT22;5055;52.054;8.524;2023-02-27T04:43:05;-4.10;97.00
10030;DHT22;5055;52.054;8.524;2023-02-27T04:45:36;-4.00;97.00
10030;DHT22;5055;52.054;8.524;2023-02-27T04:48:14;-4.00;97.00
10030;DHT22;5055;52.054;8.524;2023-02-27T04:50:49;-4.00;97.00
10030;DHT22;5055;52.054;8.524;2023-02-27T04:53:21;-4.10;97.00
10030;DHT22;5055;52.054;8.524;2023-02-27T04:55:53;-4.10;97.00
10030;DHT22;5055;52.054;8.524;2023-02-27T04:58:25;-4.10;97.00
10030;DHT22;5055;52.054;8.524;2023-02-27T05:00:59;-4.10;97.00
10030;DHT22;5055;52.054;8.524;2023-02-27T05:03:31;-4.20;97.00
10030;DHT22;5055;52.054;8.524;2023-02-27T05:06:01;-4.20;97.00
10030;DHT22;5055;52.054;8.524;2023-02-27T05:08:34;-4.20;97.00
10030;DHT22;5055;52.054;8.524;2023-02-27T05:11:08;-4.30;97.00
10030;DHT22;5055;52.054;8.524;2023-02-27T05:13:42;-4.30;97.00
10030;DHT22;5055;52.054;8.524;2023-02-27T05:16:19;-4.40;97.00
10030;DHT22;5055;52.054;8.524;2023-02-27T05:18:49;-4.40;97.00
10030;DHT22;5055;52.054;8.524;2023-02-27T05:21:22;-4.40;97.00
10030;DHT22;5055;52.054;8.524;2023-02-27T05:24:05;-4.40;97.00
10030;DHT22;5055;52.054;8.524;2023-02-27T05:26:51;-4.40;97.00
10030;DHT22;5055;52.054;8.524;2023-02-27T05:29:27;-4.40;97.00
10030;DHT22;5055;52.054;8.524;2023-02-27T05:32:05;-4.40;97.00
10030;DHT22;5055;52.054;8.524;2023-02-27T05:34:39;-4.50;97.00
10030;DHT22;5055;52.054;8.524;2023-02-27T05:37:12;-4.60;97.00
10030;DHT22;5055;52.054;8.524;2023-02-27T05:39:44;-4.60;97.00
10030;DHT22;5055;52.054;8.524;2023-02-27T05:42:17;-4.60;97.00
10030;DHT22;5055;52.054;8.524;2023-02-27T05:44:50;-4.60;97.00
10030;DHT22;5055;52.054;8.524;2023-02-27T05:47:23;-4.60;97.00
10030;DHT22;5055;52.054;8.524;2023-02-27T05:49:56;-4.70;97.00
10030;DHT22;5055;52.054;8.524;2023-02-27T05:52:27;-4.70;97.00
10030;DHT22;5055;52.054;8.524;2023-02-27T05:55:04;-4.70;97.00
10030;DHT22;5055;52.054;8.524;2023-02-27T05:57:37;-4.70;97.00
10030;DHT22;5055;52.054;8.524;2023-02-27T06:00:10;-4.80;97.00
10030;DHT22;5055;52.054;8.524;2023-02-27T06:02:43;-4.80;97.00
10030;DHT22;5055;52.054;8.524;2023-02-27T06:05:13;-4.90;97.00
10030;DHT22;5055;52.054;8.524;2023-02-27T06:07:43;-4.90;97.00
10030;DHT22;5055;52.054;8.524;2023-02-27T06:10:13;-4.90;97.00
10030;DHT22;5055;52.054;8.524;2023-02-27T06:12:42;-4.90;97.00
10030;DHT22;5055;52.054;8.524;2023-02-27T06:15:11;-4.90;97.00
10030;DHT22;5055;52.054;8.524;2023-02-27T06:17:41;-4.90;97.00
10030;DHT22;5055;52.054;8.524;2023-02-27T06:20:11;-4.90;97.00
10030;DHT22;5055;52.054;8.524;2023-02-27T06:22:42;-4.90;97.00
10030;DHT22;5055;52.054;8.524;2023-02-27T06:25:11;-4.90;97.00
10030;DHT22;5055;52.054;8.524;2023-02-27T06:27:40;-4.80;97.00
10030;DHT22;5055;52.054;8.524;2023-02-27T06:30:09;-4.80;97.00
10030;DHT22;5055;52.054;8.524;2023-02-27T06:32:38;-4.70;97.00
10030;DHT22;5055;52.054;8.524;2023-02-27T06:35:09;-4.70;97.00
10030;DHT22;5055;52.054;8.524;2023-02-27T06:37:37;-4.70;97.00
10030;DHT22;5055;52.054;8.524;2023-02-27T06:40:07;-4.60;97.00
10030;DHT22;5055;52.054;8.524;2023-02-27T06:42:37;-4.60;97.00
10030;DHT22;5055;52.054;8.524;2023-02-27T06:45:07;-4.50;97.00
10030;DHT22;5055;52.054;8.524;2023-02-27T06:47:36;-4.50;97.00
10030;DHT22;5055;52.054;8.524;2023-02-27T06:50:11;-4.40;97.00
10030;DHT22;5055;52.054;8.524;2023-02-27T06:52:40;-4.40;97.00
10030;DHT22;5055;52.054;8.524;2023-02-27T06:55:11;-4.30;97.00
10030;DHT22;5055;52.054;8.524;2023-02-27T06:57:39;-4.30;97.00
10030;DHT22;5055;52.054;8.524;2023-02-27T07:00:08;-4.30;97.00
10030;DHT22;5055;52.054;8.524;2023-02-27T07:02:37;-4.30;97.00
10030;DHT22;5055;52.054;8.524;2023-02-27T07:05:08;-4.20;97.00
10030;DHT22;5055;52.054;8.524;2023-02-27T07:07:39;-4.20;97.00
10030;DHT22;5055;52.054;8.524;2023-02-27T07:10:09;-4.10;97.00
10030;DHT22;5055;52.054;8.524;2023-02-27T07:12:38;-4.10;97.00
10030;DHT22;5055;52.054;8.524;2023-02-27T07:15:07;-4.00;97.00
10030;DHT22;5055;52.054;8.524;2023-02-27T07:17:36;-3.50;97.00
10030;DHT22;5055;52.054;8.524;2023-02-27T07:20:06;-3.00;97.00
10030;DHT22;5055;52.054;8.524;2023-02-27T07:22:36;-2.50;97.00
10030;DHT22;5055;52.054;8.524;2023-02-27T07:25:05;-2.00;97.00
10030;DHT22;5055;52.054;8.524;2023-02-27T07:27:34;-1.50;97.00
10030;DHT22;5055;52.054;8.524;2023-02-27T07:30:03;-1.20;97.00
10030;DHT22;5055;52.054;8.524;2023-02-27T07:32:32;-0.80;97.00
10030;DHT22;5055;52.054;8.524;2023-02-27T07:35:00;-0.40;97.00
10030;DHT22;5055;52.054;8.524;2023-02-27T07:37:30;0.00;97.00
10030;DHT22;5055;52.054;8.524;2023-02-27T07:39:59;0.30;97.00
10030;DHT22;5055;52.054;8.524;2023-02-27T07:42:28;0.60;97.00
10030;DHT22;5055;52.054;8.524;2023-02-27T07:44:56;0.90;97.00
10030;DHT22;5055;52.054;8.524;2023-02-27T07:47:25;1.20;97.00
10030;DHT22;5055;52.054;8.524;2023-02-27T07:49:56;1.50;97.00
10030;DHT22;5055;52.054;8.524;2023-02-27T07:52:24;1.80;97.00
10030;DHT22;5055;52.054;8.524;2023-02-27T07:54:53;2.10;97.00
10030;DHT22;5055;52.054;8.524;2023-02-27T07:57:23;2.30;97.00
10030;DHT22;5055;52.054;8.524;2023-02-27T07:59:51;2.60;97.00
10030;DHT22;5055;52.054;8.524;2023-02-27T08:02:20;2.60;97.00
10030;DHT22;5055;52.054;8.524;2023-02-27T08:04:49;2.90;97.00
10030;DHT22;5055;52.054;8.524;2023-02-27T08:07:17;3.20;97.00
10030;DHT22;5055;52.054;8.524;2023-02-27T08:09:46;3.50;97.00
10030;DHT22;5055;52.054;8.524;2023-02-27T08:12:14;3.80;97.00
10030;DHT22;5055;52.054;8.524;2023-02-27T08:14:45;4.00;97.00
10030;DHT22;5055;52.054;8.524;2023-02-27T08:17:14;4.20;97.00
10030;DHT22;5055;52.054;8.524;2023-02-27T08:19:42;4.30;97.00
10030;DHT22;5055;52.054;8.524;2023-02-27T08:22:10;4.30;97.00
10030;DHT22;5055;52.054;8.524;2023-02-27T08:24:39;4.30;97.00
10030;DHT22;5055;52.054;8.524;2023-02-27T08:27:08;4.40;97.00
10030;DHT22;5055;52.054;8.524;2023-02-27T08:29:36;4.50;97.00
10030;DHT22;5055;52.054;8.524;2023-02-27T08:32:06;4.60;97.00
10030;DHT22;5055;52.054;8.524;2023-02-27T08:34:34;4.80;97.00
10030;DHT22;5055;52.054;8.524;2023-02-27T08:37:03;4.90;97.00
10030;DHT22;5055;52.054;8.524;2023-02-27T08:39:31;5.00;97.00
10030;DHT22;5055;52.054;8.524;2023-02-27T08:42:01;5.00;97.00
10030;DHT22;5055;52.054;8.524;2023-02-27T08:44:29;5.30;97.00
10030;DHT22;5055;52.054;8.524;2023-02-27T08:46:58;5.50;97.00
10030;DHT22;5055;52.054;8.524;2023-02-27T08:49:27;5.70;97.00
10030;DHT22;5055;52.054;8.524;2023-02-27T08:51:56;5.90;97.00
10030;DHT22;5055;52.054;8.524;2023-02-27T08:54:26;6.00;97.00
10030;DHT22;5055;52.054;8.524;2023-02-27T08:56:54;6.30;97.00
10030;DHT22;5055;52.054;8.524;2023-02-27T08:59:22;6.30;97.00
10030;DHT22;5055;52.054;8.524;2023-02-27T09:01:51;6.20;97.00
10030;DHT22;5055;52.054;8.524;2023-02-27T09:04:19;6.10;97.00
10030;DHT22;5055;52.054;8.524;2023-02-27T09:06:49;6.30;97.00
10030;DHT22;5055;52.054;8.524;2023-02-27T09:09:19;6.10;97.00
10030;DHT22;5055;52.054;8.524;2023-02-27T09:11:49;6.30;97.00
10030;DHT22;5055;52.054;8.524;2023-02-27T09:14:18;6.60;97.00
10030;DHT22;5055;52.054;8.524;2023-02-27T09:16:47;7.00;97.00
10030;DHT22;5055;52.054;8.524;2023-02-27T09:19:15;7.30;97.00
10030;DHT22;5055;52.054;8.524;2023-02-27T09:21:43;7.30;97.00
10030;DHT22;5055;52.054;8.524;2023-02-27T09:24:14;7.50;97.00
10030;DHT22;5055;52.054;8.524;2023-02-27T09:26:46;7.80;97.00
10030;DHT22;5055;52.054;8.524;2023-02-27T09:29:16;7.90;97.00
10030;DHT22;5055;52.054;8.524;2023-02-27T09:31:44;7.70;97.00
10030;DHT22;5055;52.054;8.524;2023-02-27T09:34:13;7.60;97.00
10030;DHT22;5055;52.054;8.524;2023-02-27T09:36:42;7.90;97.00
10030;DHT22;5055;52.054;8.524;2023-02-27T09:39:10;8.10;97.00
10030;DHT22;5055;52.054;8.524;2023-02-27T09:41:55;8.30;97.00
10030;DHT22;5055;52.054;8.524;2023-02-27T09:44:37;8.30;97.00
10030;DHT22;5055;52.054;8.524;2023-02-27T09:47:17;8.10;97.00
10030;DHT22;5055;52.054;8.524;2023-02-27T09:49:57;8.20;97.00
10030;DHT22;5055;52.054;8.524;2023-02-27T09:52:27;8.40;97.00
10030;DHT22;5055;52.054;8.524;2023-02-27T09:54:56;8.70;97.00
10030;DHT22;5055;52.054;8.524;2023-02-27T09:57:42;8.80;97.00
10030;DHT22;5055;52.054;8.524;2023-02-27T10:00:31;8.40;97.00
10030;DHT22;5055;52.054;8.524;2023-02-27T10:03:11;8.00;97.00
10030;DHT22;5055;52.054;8.524;2023-02-27T10:05:49;8.20;97.00
10030;DHT22;5055;52.054;8.524;2023-02-27T10:08:24;8.00;97.00
10030;DHT22;5055;52.054;8.524;2023-02-27T10:10:59;8.30;97.00
10030;DHT22;5055;52.054;8.524;2023-02-27T10:13:46;8.40;97.00
10030;DHT22;5055;52.054;8.524;2023-02-27T10:16:19;8.00;97.00
10030;DHT22;5055;52.054;8.524;2023-02-27T10:18:53;8.10;97.00
10030;DHT22;5055;52.054;8.524;2023-02-27T10:21:29;8.20;97.00
10030;DHT22;5055;52.054;8.524;2023-02-27T10:24:03;8.50;97.00
10030;DHT22;5055;52.054;8.524;2023-02-27T10:26:37;8.70;97.00
10030;DHT22;5055;52.054;8.524;2023-02-27T10:29:19;8.90;97.00
10030;DHT22;5055;52.054;8.524;2023-02-27T10:31:54;9.20;97.00
10030;DHT22;5055;52.054;8.524;2023-02-27T10:34:27;9.30;97.00
10030;DHT22;5055;52.054;8.524;2023-02-27T10:37:02;9.50;97.00
10030;DHT22;5055;52.054;8.524;2023-02-27T10:39:45;9.60;97.00
10030;DHT22;5055;52.054;8.524;2023-02-27T10:42:15;9.90;97.00
10030;DHT22;5055;52.054;8.524;2023-02-27T10:44:47;10.00;97.00
10030;DHT22;5055;52.054;8.524;2023-02-27T10:47:21;10.20;97.00
10030;DHT22;5055;52.054;8.524;2023-02-27T10:49:50;10.50;97.00
10030;DHT22;5055;52.054;8.524;2023-02-27T10:52:19;10.60;97.00
10030;DHT22;5055;52.054;8.524;2023-02-27T10:54:48;10.60;97.00
10030;DHT22;5055;52.054;8.524;2023-02-27T10:57:26;10.40;97.00
10030;DHT22;5055;52.054;8.524;2023-02-27T11:00:00;10.20;97.00
10030;DHT22;5055;52.054;8.524;2023-02-27T11:02:34;10.20;97.00
10030;DHT22;5055;52.054;8.524;2023-02-27T11:05:06;9.80;97.00
10030;DHT22;5055;52.054;8.524;2023-02-27T11:07:44;9.90;97.00
10030;DHT22;5055;52.054;8.524;2023-02-27T11:10:18;9.70;97.00
10030;DHT22;5055;52.054;8.524;2023-02-27T11:12:59;9.80;97.00
10030;DHT22;5055;52.054;8.524;2023-02-27T11:15:31;9.90;97.00
10030;DHT22;5055;52.054;8.524;2023-02-27T11:18:18;9.50;97.00
10030;DHT22;5055;52.054;8.524;2023-02-27T11:20:46;9.30;97.00
10030;DHT22;5055;52.054;8.524;2023-02-27T11:23:19;9.10;97.00
10030;DHT22;5055;52.054;8.524;2023-02-27T11:25:50;8.70;97.00
10030;DHT22;5055;52.054;8.524;2023-02-27T11:28:23;8.20;97.00
10030;DHT22;5055;52.054;8.524;2023-02-27T11:30:59;8.10;97.00
10030;DHT22;5055;52.054;8.524;2023-02-27T11:33:30;8.20;97.00
10030;DHT22;5055;52.054;8.524;2023-02-27T11:36:01;7.80;97.00
10030;DHT22;5055;52.054;8.524;2023-02-27T11:38:31;7.60;97.00
10030;DHT22;5055;52.054;8.524;2023-02-27T11:41:03;7.40;97.00
10030;DHT22;5055;52.054;8.524;2023-02-27T11:43:35;7.30;97.00
10030;DHT22;5055;52.054;8.524;2023-02-27T11:46:10;7.20;97.00
10030;DHT22;5055;52.054;8.524;2023-02-27T11:49:12;7.20;97.00
10030;DHT22;5055;52.054;8.524;2023-02-27T11:51:51;7.00;97.00
10030;DHT22;5055;52.054;8.524;2023-02-27T11:54:31;7.00;97.00
10030;DHT22;5055;52.054;8.524;2023-02-27T11:57:09;6.90;97.00
10030;DHT22;5055;52.054;8.524;2023-02-27T11:59:45;6.90;97.00
10030;DHT22;5055;52.054;8.524;2023-02-27T12:02:23;6.80;97.00
10030;DHT22;5055;52.054;8.524;2023-02-27T12:04:55;6.70;97.00
10030;DHT22;5055;52.054;8.524;2023-02-27T12:07:26;6.70;97.00
10030;DHT22;5055;52.054;8.524;2023-02-27T12:10:02;6.60;97.00
10030;DHT22;5055;52.054;8.524;2023-02-27T12:12:38;6.70;97.00
10030;DHT22;5055;52.054;8.524;2023-02-27T12:15:19;6.50;97.00
10030;DHT22;5055;52.054;8.524;2023-02-27T12:17:54;6.80;97.00
10030;DHT22;5055;52.054;8.524;2023-02-27T12:20:32;7.10;97.00
10030;DHT22;5055;52.054;8.524;2023-02-27T12:23:10;7.40;97.00
10030;DHT22;5055;52.054;8.524;2023-02-27T12:25:46;7.70;97.00
10030;DHT22;5055;52.054;8.524;2023-02-27T12:28:38;8.00;97.00
10030;DHT22;5055;52.054;8.524;2023-02-27T12:31:20;8.30;97.00
10030;DHT22;5055;52.054;8.524;2023-02-27T12:33:58;8.70;97.00
10030;DHT22;5055;52.054;8.524;2023-02-27T12:36:28;8.60;97.00
10030;DHT22;5055;52.054;8.524;2023-02-27T12:38:57;8.60;97.00
10030;DHT22;5055;52.054;8.524;2023-02-27T12:41:45;8.20;97.00
10030;DHT22;5055;52.054;8.524;2023-02-27T12:44:38;7.90;97.00
10030;DHT22;5055;52.054;8.524;2023-02-27T12:47:19;7.70;97.00
10030;DHT22;5055;52.054;8.524;2023-02-27T12:50:00;7.60;97.00
10030;DHT22;5055;52.054;8.524;2023-02-27T12:52:37;7.40;97.00
10030;DHT22;5055;52.054;8.524;2023-02-27T12:55:11;7.20;97.00
10030;DHT22;5055;52.054;8.524;2023-02-27T12:58:09;7.00;97.00
10030;DHT22;5055;52.054;8.524;2023-02-27T13:00:44;6.90;97.00
10030;DHT22;5055;52.054;8.524;2023-02-27T13:03:18;7.00;97.00
10030;DHT22;5055;52.054;8.524;2023-02-27T13:05:57;7.60;97.00
10030;DHT22;5055;52.054;8.524;2023-02-27T13:08:52;8.40;97.00
10030;DHT22;5055;52.054;8.524;2023-02-27T13:11:30;8.50;97.00
10030;DHT22;5055;52.054;8.524;2023-02-27T13:14:06;8.40;97.00
10030;DHT22;5055;52.054;8.524;2023-02-27T13:16:42;8.20;97.00
10030;DHT22;5055;52.054;8.524;2023-02-27T13:19:14;7.90;97.00
10030;DHT22;5055;52.054;8.524;2023-02-27T13:21:48;7.70;97.00
10030;DHT22;5055;52.054;8.524;2023-02-27T13:24:24;7.50;97.00
10030;DHT22;5055;52.054;8.524;2023-02-27T13:26:58;7.10;97.00
10030;DHT22;5055;52.054;8.524;2023-02-27T13:29:38;6.90;97.00
10030;DHT22;5055;52.054;8.524;2023-02-27T13:32:22;7.10;97.00
10030;DHT22;5055;52.054;8.524;2023-02-27T13:35:18;8.30;97.00
10030;DHT22;5055;52.054;8.524;2023-02-27T13:37:51;9.80;97.00
10030;DHT22;5055;52.054;8.524;2023-02-27T13:40:43;11.00;97.00
10030;DHT22;5055;52.054;8.524;2023-02-27T13:43:31;12.10;97.00
10030;DHT22;5055;52.054;8.524;2023-02-27T13:46:24;12.90;97.00
10030;DHT22;5055;52.054;8.524;2023-02-27T13:48:53;13.70;97.00
10030;DHT22;5055;52.054;8.524;2023-02-27T13:51:54;14.10;97.00
10030;DHT22;5055;52.054;8.524;2023-02-27T13:54:39;14.30;97.00
10030;DHT22;5055;52.054;8.524;2023-02-27T13:57:20;15.00;97.00
10030;DHT22;5055;52.054;8.524;2023-02-27T14:00:00;15.30;97.00
10030;DHT22;5055;52.054;8.524;2023-02-27T14:02:36;16.00;97.00
10030;DHT22;5055;52.054;8.524;2023-02-27T14:05:30;16.20;97.00
10030;DHT22;5055;52.054;8.524;2023-02-27T14:08:11;14.40;97.00
10030;DHT22;5055;52.054;8.524;2023-02-27T14:10:54;13.40;97.00
10030;DHT22;5055;52.054;8.524;2023-02-27T14:16:55;10.30;97.00
10030;DHT22;5055;52.054;8.524;2023-02-27T14:19:49;9.20;97.00
10030;DHT22;5055;52.054;8.524;2023-02-27T14:25:35;8.40;97.00
10030;DHT22;5055;52.054;8.524;2023-02-27T14:28:20;8.60;97.00
10030;DHT22;5055;52.054;8.524;2023-02-27T14:31:03;8.40;97.00
10030;DHT22;5055;52.054;8.524;2023-02-27T14:33:38;8.40;97.00
10030;DHT22;5055;52.054;8.524;2023-02-27T14:36:14;8.20;97.00
10030;DHT22;5055;52.054;8.524;2023-02-27T14:38:43;7.80;97.00
10030;DHT22;5055;52.054;8.524;2023-02-27T14:41:37;7.60;97.00
10030;DHT22;5055;52.054;8.524;2023-02-27T14:44:18;7.60;97.00
10030;DHT22;5055;52.054;8.524;2023-02-27T14:46:47;8.40;97.00
10030;DHT22;5055;52.054;8.524;2023-02-27T14:49:19;9.50;97.00
10030;DHT22;5055;52.054;8.524;2023-02-27T14:51:48;10.60;97.00
10030;DHT22;5055;52.054;8.524;2023-02-27T14:54:19;11.30;97.00
10030;DHT22;5055;52.054;8.524;2023-02-27T14:56:56;11.70;97.00
10030;DHT22;5055;52.054;8.524;2023-02-27T14:59:29;11.10;97.00
10030;DHT22;5055;52.054;8.524;2023-02-27T15:02:00;10.50;97.00
10030;DHT22;5055;52.054;8.524;2023-02-27T15:04:31;9.60;97.00
10030;DHT22;5055;52.054;8.524;2023-02-27T15:07:00;8.80;97.00
10030;DHT22;5055;52.054;8.524;2023-02-27T15:09:34;8.20;97.00
10030;DHT22;5055;52.054;8.524;2023-02-27T15:12:03;8.20;97.00
10030;DHT22;5055;52.054;8.524;2023-02-27T15:14:35;8.50;97.00
10030;DHT22;5055;52.054;8.524;2023-02-27T15:17:14;9.10;97.00
10030;DHT22;5055;52.054;8.524;2023-02-27T15:19:47;10.10;97.00
10030;DHT22;5055;52.054;8.524;2023-02-27T15:22:19;10.70;97.00
10030;DHT22;5055;52.054;8.524;2023-02-27T15:25:04;10.50;97.00
10030;DHT22;5055;52.054;8.524;2023-02-27T15:27:34;10.50;97.00
10030;DHT22;5055;52.054;8.524;2023-02-27T15:30:16;10.00;97.00
10030;DHT22;5055;52.054;8.524;2023-02-27T15:32:46;9.30;97.00
10030;DHT22;5055;52.054;8.524;2023-02-27T15:35:16;8.60;97.00
10030;DHT22;5055;52.054;8.524;2023-02-27T15:37:50;8.10;97.00
10030;DHT22;5055;52.054;8.524;2023-02-27T15:40:23;7.50;97.00
10030;DHT22;5055;52.054;8.524;2023-02-27T15:42:52;7.30;97.00
10030;DHT22;5055;52.054;8.524;2023-02-27T15:45:30;7.10;97.00
10030;DHT22;5055;52.054;8.524;2023-02-27T15:47:59;6.90;97.00
10030;DHT22;5055;52.054;8.524;2023-02-27T15:50:32;6.60;97.00
10030;DHT22;5055;52.054;8.524;2023-02-27T15:53:08;6.50;97.00
10030;DHT22;5055;52.054;8.524;2023-02-27T15:55:40;6.40;97.00
10030;DHT22;5055;52.054;8.524;2023-02-27T15:58:18;6.30;97.00
10030;DHT22;5055;52.054;8.524;2023-02-27T16:00:51;6.20;97.00
10030;DHT22;5055;52.054;8.524;2023-02-27T16:03:27;6.10;97.00
10030;DHT22;5055;52.054;8.524;2023-02-27T16:05:59;5.90;97.00
10030;DHT22;5055;52.054;8.524;2023-02-27T16:08:29;5.80;97.00
10030;DHT22;5055;52.054;8.524;2023-02-27T16:10:58;5.70;97.00
10030;DHT22;5055;52.054;8.524;2023-02-27T16:13:31;5.60;97.00
10030;DHT22;5055;52.054;8.524;2023-02-27T16:16:04;5.50;97.00
10030;DHT22;5055;52.054;8.524;2023-02-27T16:18:35;5.40;97.00
10030;DHT22;5055;52.054;8.524;2023-02-27T16:21:10;5.40;97.00
10030;DHT22;5055;52.054;8.524;2023-02-27T16:23:40;5.30;97.00
10030;DHT22;5055;52.054;8.524;2023-02-27T16:26:28;5.20;97.00
10030;DHT22;5055;52.054;8.524;2023-02-27T16:28:59;5.10;97.00
10030;DHT22;5055;52.054;8.524;2023-02-27T16:31:32;5.00;97.00
10030;DHT22;5055;52.054;8.524;2023-02-27T16:34:13;5.00;97.00
10030;DHT22;5055;52.054;8.524;2023-02-27T16:36:50;4.90;97.00
10030;DHT22;5055;52.054;8.524;2023-02-27T16:39:19;4.80;97.00
10030;DHT22;5055;52.054;8.524;2023-02-27T16:41:48;4.80;97.00
10030;DHT22;5055;52.054;8.524;2023-02-27T16:44:16;4.70;97.00
10030;DHT22;5055;52.054;8.524;2023-02-27T16:46:46;4.60;97.00